sensor_id;sensor_type;location;lat;lon;timestamp;temperature;humidity
20158;DHT22;10239;56.820;24.416;2022-07-06T00:00:28;14.80;99.90
20158;DHT22;10239;56.820;24.416;2022-07-06T00:02:55;14.90;99.90
20158;DHT22;10239;56.820;24.416;2022-07-06T00:05:23;14.80;99.90
20158;DHT22;10239;56.820;24.416;2022-07-06T00:07:51;14.80;99.90
20158;DHT22;10239;56.820;24.416;2022-07-06T00:10:19;14.70;99.90
20158;DHT22;10239;56.820;24.416;2022-07-06T00:12:46;14.60;99.90
20158;DHT22;10239;56.820;24.416;2022-07-06T00:15:14;14.70;99.90
20158;DHT22;10239;56.820;24.416;2022-07-06T00:17:41;14.60;99.90
20158;DHT22;10239;56.820;24.416;2022-07-06T00:20:09;14.60;99.90
20158;DHT22;10239;56.820;24.416;2022-07-06T00:22:37;14.60;99.90
20158;DHT22;10239;56.820;24.416;2022-07-06T00:25:05;14.60;99.90
20158;DHT22;10239;56.820;24.416;2022-07-06T00:27:33;14.60;99.90
20158;DHT22;10239;56.820;24.416;2022-07-06T00:30:00;14.60;99.90
20158;DHT22;10239;56.820;24.416;2022-07-06T00:32:28;14.50;99.90
20158;DHT22;10239;56.820;24.416;2022-07-06T00:34:56;14.60;99.90
20158;DHT22;10239;56.820;24.416;2022-07-06T00:37:23;14.60;99.90
20158;DHT22;10239;56.820;24.416;2022-07-06T00:39:51;14.50;99.90
20158;DHT22;10239;56.820;24.416;2022-07-06T00:42:19;14.40;99.90
20158;DHT22;10239;56.820;24.416;2022-07-06T00:44:46;14.30;99.90
20158;DHT22;10239;56.820;24.416;2022-07-06T00:47:14;14.20;99.90
20158;DHT22;10239;56.820;24.416;2022-07-06T00:49:42;14.30;99.90
20158;DHT22;10239;56.820;24.416;2022-07-06T00:52:28;14.30;99.90
20158;DHT22;10239;56.820;24.416;2022-07-06T00:54:56;14.40;99.90
20158;DHT22;10239;56.820;24.416;2022-07-06T00:57:25;14.50;99.90
20158;DHT22;10239;56.820;24.416;2022-07-06T00:59:53;14.50;99.90
20158;DHT22;10239;56.820;24.416;2022-07-06T01:02:21;14.40;99.90
20158;DHT22;10239;56.820;24.416;2022-07-06T01:04:50;14.50;99.90
20158;DHT22;10239;56.820;24.416;2022-07-06T01:07:17;14.60;99.90
20158;DHT22;10239;56.820;24.416;2022-07-06T01:09:45;14.70;99.90
20158;DHT22;10239;56.820;24.416;2022-07-06T01:12:13;14.50;99.90
20158;DHT22;10239;56.820;24.416;2022-07-06T01:14:41;14.50;99.90
20158;DHT22;10239;56.820;24.416;2022-07-06T01:17:09;14.30;99.90
20158;DHT22;10239;56.820;24.416;2022-07-06T01:19:37;14.20;99.90
20158;DHT22;10239;56.820;24.416;2022-07-06T01:22:05;14.10;99.90
20158;DHT22;10239;56.820;24.416;2022-07-06T01:24:36;14.10;99.90
20158;DHT22;10239;56.820;24.416;2022-07-06T01:27:04;14.10;99.90
20158;DHT22;10239;56.820;24.416;2022-07-06T01:29:33;14.10;99.90
20158;DHT22;10239;56.820;24.416;2022-07-06T01:32:01;14.10;99.90
20158;DHT22;10239;56.820;24.416;2022-07-06T01:34:29;14.10;99.90
20158;DHT22;10239;56.820;24.416;2022-07-06T01:36:56;14.20;99.90
20158;DHT22;10239;56.820;24.416;2022-07-06T01:39:24;14.30;99.90
20158;DHT22;10239;56.820;24.416;2022-07-06T01:41:51;14.40;99.90
20158;DHT22;10239;56.820;24.416;2022-07-06T01:44:19;14.40;99.90
20158;DHT22;10239;56.820;24.416;2022-07-06T01:46:46;14.30;99.90
20158;DHT22;10239;56.820;24.416;2022-07-06T01:49:14;14.40;99.90
20158;DHT22;10239;56.820;24.416;2022-07-06T01:51:42;14.40;99.90
20158;DHT22;10239;56.820;24.416;2022-07-06T01:54:09;14.30;99.90
20158;DHT22;10239;56.820;24.416;2022-07-06T01:56:38;14.20;99.90
20158;DHT22;10239;56.820;24.416;2022-07-06T01:59:06;14.30;99.90
20158;DHT22;10239;56.820;24.416;2022-07-06T02:01:34;14.20;99.90
20158;DHT22;10239;56.820;24.416;2022-07-06T02:04:01;14.20;99.90
20158;DHT22;10239;56.820;24.416;2022-07-06T02:06:30;14.30;99.90
20158;DHT22;10239;56.820;24.416;2022-07-06T02:08:58;14.30;99.90
20158;DHT22;10239;56.820;24.416;2022-07-06T02:11:26;14.30;99.90
20158;DHT22;10239;56.820;24.416;2022-07-06T02:13:55;14.20;99.90
20158;DHT22;10239;56.820;24.416;2022-07-06T02:16:23;14.20;99.90
20158;DHT22;10239;56.820;24.416;2022-07-06T02:18:51;14.30;99.90
20158;DHT22;10239;56.820;24.416;2022-07-06T02:21:19;14.40;99.90
20158;DHT22;10239;56.820;24.416;2022-07-06T02:23:46;14.50;99.90
20158;DHT22;10239;56.820;24.416;2022-07-06T02:26:15;14.50;99.90
20158;DHT22;10239;56.820;24.416;2022-07-06T02:28:44;14.60;99.90
20158;DHT22;10239;56.820;24.416;2022-07-06T02:31:15;14.60;99.90
20158;DHT22;10239;56.820;24.416;2022-07-06T02:33:45;14.60;99.90
20158;DHT22;10239;56.820;24.416;2022-07-06T02:36:14;14.70;99.90
20158;DHT22;10239;56.820;24.416;2022-07-06T02:38:42;14.80;99.90
20158;DHT22;10239;56.820;24.416;2022-07-06T02:41:10;14.80;99.90
20158;DHT22;10239;56.820;24.416;2022-07-06T02:43:38;14.90;99.90
20158;DHT22;10239;56.820;24.416;2022-07-06T02:46:06;15.00;99.90
20158;DHT22;10239;56.820;24.416;2022-07-06T02:48:34;15.00;99.90
20158;DHT22;10239;56.820;24.416;2022-07-06T02:51:02;15.20;99.90
20158;DHT22;10239;56.820;24.416;2022-07-06T02:53:29;15.30;99.90
20158;DHT22;10239;56.820;24.416;2022-07-06T02:55:57;15.40;99.90
20158;DHT22;10239;56.820;24.416;2022-07-06T02:58:25;15.50;99.90
20158;DHT22;10239;56.820;24.416;2022-07-06T03:00:53;15.60;99.90
20158;DHT22;10239;56.820;24.416;2022-07-06T03:03:20;15.80;99.90
20158;DHT22;10239;56.820;24.416;2022-07-06T03:05:48;16.00;99.90
20158;DHT22;10239;56.820;24.416;2022-07-06T03:08:18;16.20;99.90
20158;DHT22;10239;56.820;24.416;2022-07-06T03:10:46;16.30;99.90
20158;DHT22;10239;56.820;24.416;2022-07-06T03:13:14;16.40;99.90
20158;DHT22;10239;56.820;24.416;2022-07-06T03:15:41;16.60;99.90
20158;DHT22;10239;56.820;24.416;2022-07-06T03:18:09;16.80;99.90
20158;DHT22;10239;56.820;24.416;2022-07-06T03:20:37;16.90;99.90
20158;DHT22;10239;56.820;24.416;2022-07-06T03:23:07;16.90;99.90
20158;DHT22;10239;56.820;24.416;2022-07-06T03:25:35;16.90;99.90
20158;DHT22;10239;56.820;24.416;2022-07-06T03:28:03;17.00;99.90
20158;DHT22;10239;56.820;24.416;2022-07-06T03:30:31;17.00;99.90
20158;DHT22;10239;56.820;24.416;2022-07-06T03:32:59;17.10;99.90
20158;DHT22;10239;56.820;24.416;2022-07-06T03:35:28;17.20;99.90
20158;DHT22;10239;56.820;24.416;2022-07-06T03:37:57;17.40;99.90
20158;DHT22;10239;56.820;24.416;2022-07-06T03:40:28;17.50;99.90
20158;DHT22;10239;56.820;24.416;2022-07-06T03:42:55;17.60;99.90
20158;DHT22;10239;56.820;24.416;2022-07-06T03:45:25;17.60;99.90
20158;DHT22;10239;56.820;24.416;2022-07-06T03:47:52;17.70;99.90
20158;DHT22;10239;56.820;24.416;2022-07-06T03:50:20;17.80;99.90
20158;DHT22;10239;56.820;24.416;2022-07-06T03:52:49;17.90;99.90
20158;DHT22;10239;56.820;24.416;2022-07-06T03:55:17;17.70;99.90
20158;DHT22;10239;56.820;24.416;2022-07-06T03:57:50;17.80;99.90
20158;DHT22;10239;56.820;24.416;2022-07-06T04:00:21;17.80;99.90
20158;DHT22;10239;56.820;24.416;2022-07-06T04:02:57;17.80;99.90
20158;DHT22;10239;56.820;24.416;2022-07-06T04:05:28;17.90;99.90
20158;DHT22;10239;56.820;24.416;2022-07-06T04:07:56;18.00;99.90
20158;DHT22;10239;56.820;24.416;2022-07-06T04:10:31;18.20;99.90
20158;DHT22;10239;56.820;24.416;2022-07-06T04:12:59;18.50;99.90
20158;DHT22;10239;56.820;24.416;2022-07-06T04:15:26;18.60;99.90
20158;DHT22;10239;56.820;24.416;2022-07-06T04:17:54;18.50;99.90
20158;DHT22;10239;56.820;24.416;2022-07-06T04:20:28;18.40;99.90
20158;DHT22;10239;56.820;24.416;2022-07-06T04:22:56;18.20;99.90
20158;DHT22;10239;56.820;24.416;2022-07-06T04:25:25;17.90;99.90
20158;DHT22;10239;56.820;24.416;2022-07-06T04:27:56;17.70;99.90
20158;DHT22;10239;56.820;24.416;2022-07-06T04:30:23;17.50;99.90
20158;DHT22;10239;56.820;24.416;2022-07-06T04:32:51;17.60;99.90
20158;DHT22;10239;56.820;24.416;2022-07-06T04:35:19;17.70;99.90
20158;DHT22;10239;56.820;24.416;2022-07-06T04:37:48;17.80;99.90
20158;DHT22;10239;56.820;24.416;2022-07-06T04:40:18;18.00;99.90
20158;DHT22;10239;56.820;24.416;2022-07-06T04:42:49;17.90;99.90
20158;DHT22;10239;56.820;24.416;2022-07-06T04:45:16;18.10;99.90
20158;DHT22;10239;56.820;24.416;2022-07-06T04:47:44;18.10;99.90
20158;DHT22;10239;56.820;24.416;2022-07-06T04:50:13;18.50;99.90
20158;DHT22;10239;56.820;24.416;2022-07-06T04:52:42;18.80;99.90
20158;DHT22;10239;56.820;24.416;2022-07-06T04:55:10;19.00;99.90
20158;DHT22;10239;56.820;24.416;2022-07-06T04:57:39;19.10;99.90
20158;DHT22;10239;56.820;24.416;2022-07-06T05:00:07;19.30;99.90
20158;DHT22;10239;56.820;24.416;2022-07-06T05:02:35;19.40;99.90
20158;DHT22;10239;56.820;24.416;2022-07-06T05:05:03;19.30;99.90
20158;DHT22;10239;56.820;24.416;2022-07-06T05:07:31;19.00;99.90
20158;DHT22;10239;56.820;24.416;2022-07-06T05:10:01;18.90;99.90
20158;DHT22;10239;56.820;24.416;2022-07-06T05:12:31;18.70;99.90
20158;DHT22;10239;56.820;24.416;2022-07-06T05:14:59;18.80;99.90
20158;DHT22;10239;56.820;24.416;2022-07-06T05:17:27;18.80;99.90
20158;DHT22;10239;56.820;24.416;2022-07-06T05:19:58;18.80;99.90
20158;DHT22;10239;56.820;24.416;2022-07-06T05:22:29;18.80;99.90
20158;DHT22;10239;56.820;24.416;2022-07-06T05:24:59;18.80;99.90
20158;DHT22;10239;56.820;24.416;2022-07-06T05:27:27;18.90;99.90
20158;DHT22;10239;56.820;24.416;2022-07-06T05:29:55;18.90;99.90
20158;DHT22;10239;56.820;24.416;2022-07-06T05:32:24;19.10;99.90
20158;DHT22;10239;56.820;24.416;2022-07-06T05:34:52;19.30;99.90
20158;DHT22;10239;56.820;24.416;2022-07-06T05:37:20;19.30;99.90
20158;DHT22;10239;56.820;24.416;2022-07-06T05:39:48;19.40;99.90
20158;DHT22;10239;56.820;24.416;2022-07-06T05:42:18;19.30;99.90
20158;DHT22;10239;56.820;24.416;2022-07-06T05:44:46;19.30;99.90
20158;DHT22;10239;56.820;24.416;2022-07-06T05:47:14;19.10;99.90
20158;DHT22;10239;56.820;24.416;2022-07-06T05:50:00;19.40;99.90
20158;DHT22;10239;56.820;24.416;2022-07-06T05:52:59;19.50;99.90
20158;DHT22;10239;56.820;24.416;2022-07-06T05:55:38;19.70;99.90
20158;DHT22;10239;56.820;24.416;2022-07-06T05:58:06;19.80;99.90
20158;DHT22;10239;56.820;24.416;2022-07-06T06:00:36;19.80;99.90
20158;DHT22;10239;56.820;24.416;2022-07-06T06:03:10;19.60;99.90
20158;DHT22;10239;56.820;24.416;2022-07-06T06:05:38;19.80;99.90
20158;DHT22;10239;56.820;24.416;2022-07-06T06:08:08;20.00;99.90
20158;DHT22;10239;56.820;24.416;2022-07-06T06:10:39;20.50;99.90
20158;DHT22;10239;56.820;24.416;2022-07-06T06:13:10;20.50;99.90
20158;DHT22;10239;56.820;24.416;2022-07-06T06:15:38;20.50;99.90
20158;DHT22;10239;56.820;24.416;2022-07-06T06:18:07;20.40;99.90
20158;DHT22;10239;56.820;24.416;2022-07-06T06:20:35;20.20;99.90
20158;DHT22;10239;56.820;24.416;2022-07-06T06:23:03;20.40;99.90
20158;DHT22;10239;56.820;24.416;2022-07-06T06:25:36;20.40;99.90
20158;DHT22;10239;56.820;24.416;2022-07-06T06:28:09;20.50;99.90
20158;DHT22;10239;56.820;24.416;2022-07-06T06:30:37;20.60;99.90
20158;DHT22;10239;56.820;24.416;2022-07-06T06:33:23;20.60;99.90
20158;DHT22;10239;56.820;24.416;2022-07-06T06:35:51;20.60;99.90
20158;DHT22;10239;56.820;24.416;2022-07-06T06:38:22;20.40;99.90
20158;DHT22;10239;56.820;24.416;2022-07-06T06:40:50;20.50;99.90
20158;DHT22;10239;56.820;24.416;2022-07-06T06:43:17;20.40;99.90
20158;DHT22;10239;56.820;24.416;2022-07-06T06:46:20;20.40;99.90
20158;DHT22;10239;56.820;24.416;2022-07-06T06:48:48;20.60;99.90
20158;DHT22;10239;56.820;24.416;2022-07-06T06:51:16;20.50;99.90
20158;DHT22;10239;56.820;24.416;2022-07-06T06:53:43;20.50;99.90
20158;DHT22;10239;56.820;24.416;2022-07-06T06:56:11;20.80;99.90
20158;DHT22;10239;56.820;24.416;2022-07-06T06:58:38;20.90;99.90
20158;DHT22;10239;56.820;24.416;2022-07-06T07:01:26;20.70;99.90
20158;DHT22;10239;56.820;24.416;2022-07-06T07:03:54;20.60;99.90
20158;DHT22;10239;56.820;24.416;2022-07-06T07:06:22;20.80;99.90
20158;DHT22;10239;56.820;24.416;2022-07-06T07:08:50;20.90;99.90
20158;DHT22;10239;56.820;24.416;2022-07-06T07:11:18;20.70;99.90
20158;DHT22;10239;56.820;24.416;2022-07-06T07:13:45;20.80;99.90
20158;DHT22;10239;56.820;24.416;2022-07-06T07:16:13;20.90;99.90
20158;DHT22;10239;56.820;24.416;2022-07-06T07:18:41;20.60;99.90
20158;DHT22;10239;56.820;24.416;2022-07-06T07:21:09;20.50;99.90
20158;DHT22;10239;56.820;24.416;2022-07-06T07:23:36;20.50;99.90
20158;DHT22;10239;56.820;24.416;2022-07-06T07:26:04;20.20;99.90
20158;DHT22;10239;56.820;24.416;2022-07-06T07:28:31;20.20;99.90
20158;DHT22;10239;56.820;24.416;2022-07-06T07:30:59;20.10;99.90
20158;DHT22;10239;56.820;24.416;2022-07-06T07:33:27;20.20;99.90
20158;DHT22;10239;56.820;24.416;2022-07-06T07:35:55;19.60;99.90
20158;DHT22;10239;56.820;24.416;2022-07-06T07:38:22;20.10;99.90
20158;DHT22;10239;56.820;24.416;2022-07-06T07:40:52;20.60;99.90
20158;DHT22;10239;56.820;24.416;2022-07-06T07:43:21;20.80;99.90
20158;DHT22;10239;56.820;24.416;2022-07-06T07:45:48;20.80;99.90
20158;DHT22;10239;56.820;24.416;2022-07-06T07:48:16;21.10;99.90
20158;DHT22;10239;56.820;24.416;2022-07-06T07:50:44;21.40;99.90
20158;DHT22;10239;56.820;24.416;2022-07-06T07:53:12;21.40;99.90
20158;DHT22;10239;56.820;24.416;2022-07-06T07:55:39;21.70;99.90
20158;DHT22;10239;56.820;24.416;2022-07-06T07:58:08;21.50;99.90
20158;DHT22;10239;56.820;24.416;2022-07-06T08:00:36;21.40;99.90
20158;DHT22;10239;56.820;24.416;2022-07-06T08:03:04;21.40;99.90
20158;DHT22;10239;56.820;24.416;2022-07-06T08:05:32;21.20;99.90
20158;DHT22;10239;56.820;24.416;2022-07-06T08:08:00;20.90;99.90
20158;DHT22;10239;56.820;24.416;2022-07-06T08:10:27;20.80;99.90
20158;DHT22;10239;56.820;24.416;2022-07-06T08:12:56;21.10;99.90
20158;DHT22;10239;56.820;24.416;2022-07-06T08:15:24;21.50;99.90
20158;DHT22;10239;56.820;24.416;2022-07-06T08:17:52;21.70;99.90
20158;DHT22;10239;56.820;24.416;2022-07-06T08:20:20;21.20;99.90
20158;DHT22;10239;56.820;24.416;2022-07-06T08:22:48;21.30;99.90
20158;DHT22;10239;56.820;24.416;2022-07-06T08:25:15;20.90;99.90
20158;DHT22;10239;56.820;24.416;2022-07-06T08:27:44;20.80;99.90
20158;DHT22;10239;56.820;24.416;2022-07-06T08:30:12;20.40;99.90
20158;DHT22;10239;56.820;24.416;2022-07-06T08:32:41;20.90;99.90
20158;DHT22;10239;56.820;24.416;2022-07-06T08:35:29;21.10;99.90
20158;DHT22;10239;56.820;24.416;2022-07-06T08:37:58;20.50;99.90
20158;DHT22;10239;56.820;24.416;2022-07-06T08:40:29;20.40;99.90
20158;DHT22;10239;56.820;24.416;2022-07-06T08:42:59;20.50;99.90
20158;DHT22;10239;56.820;24.416;2022-07-06T08:45:28;20.90;99.90
20158;DHT22;10239;56.820;24.416;2022-07-06T08:47:59;20.70;99.90
20158;DHT22;10239;56.820;24.416;2022-07-06T08:50:31;20.90;99.90
20158;DHT22;10239;56.820;24.416;2022-07-06T08:52:59;20.90;99.90
20158;DHT22;10239;56.820;24.416;2022-07-06T08:55:27;21.20;99.90
20158;DHT22;10239;56.820;24.416;2022-07-06T08:57:55;21.10;99.90
20158;DHT22;10239;56.820;24.416;2022-07-06T09:00:24;20.90;99.90
20158;DHT22;10239;56.820;24.416;2022-07-06T09:02:52;21.10;99.90
20158;DHT22;10239;56.820;24.416;2022-07-06T09:05:24;21.10;99.90
20158;DHT22;10239;56.820;24.416;2022-07-06T09:07:52;21.50;99.90
20158;DHT22;10239;56.820;24.416;2022-07-06T09:10:25;21.40;99.90
20158;DHT22;10239;56.820;24.416;2022-07-06T09:12:53;21.50;99.90
20158;DHT22;10239;56.820;24.416;2022-07-06T09:15:28;21.70;99.90
20158;DHT22;10239;56.820;24.416;2022-07-06T09:17:56;21.30;99.90
20158;DHT22;10239;56.820;24.416;2022-07-06T09:20:25;20.90;99.90
20158;DHT22;10239;56.820;24.416;2022-07-06T09:23:04;20.50;99.90
20158;DHT22;10239;56.820;24.416;2022-07-06T09:25:39;21.00;99.90
20158;DHT22;10239;56.820;24.416;2022-07-06T09:28:23;21.10;99.90
20158;DHT22;10239;56.820;24.416;2022-07-06T09:31:07;21.30;99.90
20158;DHT22;10239;56.820;24.416;2022-07-06T09:34:00;21.50;99.90
20158;DHT22;10239;56.820;24.416;2022-07-06T09:36:49;21.40;99.90
20158;DHT22;10239;56.820;24.416;2022-07-06T09:39:23;20.80;99.90
20158;DHT22;10239;56.820;24.416;2022-07-06T09:41:56;21.10;99.90
20158;DHT22;10239;56.820;24.416;2022-07-06T09:44:33;21.10;99.90
20158;DHT22;10239;56.820;24.416;2022-07-06T09:47:10;21.20;99.90
20158;DHT22;10239;56.820;24.416;2022-07-06T09:49:39;21.20;99.90
20158;DHT22;10239;56.820;24.416;2022-07-06T09:52:09;21.30;99.90
20158;DHT22;10239;56.820;24.416;2022-07-06T09:54:38;21.50;99.90
20158;DHT22;10239;56.820;24.416;2022-07-06T09:57:06;21.90;99.90
20158;DHT22;10239;56.820;24.416;2022-07-06T09:59:36;21.80;99.90
20158;DHT22;10239;56.820;24.416;2022-07-06T10:02:06;21.60;99.90
20158;DHT22;10239;56.820;24.416;2022-07-06T10:04:35;21.90;99.90
20158;DHT22;10239;56.820;24.416;2022-07-06T10:07:04;21.80;99.90
20158;DHT22;10239;56.820;24.416;2022-07-06T10:09:32;21.80;99.90
20158;DHT22;10239;56.820;24.416;2022-07-06T10:12:02;22.10;99.90
20158;DHT22;10239;56.820;24.416;2022-07-06T10:14:32;21.60;99.90
20158;DHT22;10239;56.820;24.416;2022-07-06T10:17:02;21.70;99.90
20158;DHT22;10239;56.820;24.416;2022-07-06T10:19:30;21.90;99.90
20158;DHT22;10239;56.820;24.416;2022-07-06T10:22:01;21.80;99.90
20158;DHT22;10239;56.820;24.416;2022-07-06T10:24:30;21.80;99.90
20158;DHT22;10239;56.820;24.416;2022-07-06T10:26:57;21.80;99.90
20158;DHT22;10239;56.820;24.416;2022-07-06T10:29:25;22.20;99.90
20158;DHT22;10239;56.820;24.416;2022-07-06T10:31:53;22.00;99.90
20158;DHT22;10239;56.820;24.416;2022-07-06T10:34:21;22.10;99.90
20158;DHT22;10239;56.820;24.416;2022-07-06T10:36:51;22.30;99.90
20158;DHT22;10239;56.820;24.416;2022-07-06T10:39:36;22.10;99.90
20158;DHT22;10239;56.820;24.416;2022-07-06T10:42:45;22.10;99.90
20158;DHT22;10239;56.820;24.416;2022-07-06T10:45:17;21.90;99.90
20158;DHT22;10239;56.820;24.416;2022-07-06T10:47:50;22.30;99.90
20158;DHT22;10239;56.820;24.416;2022-07-06T10:50:36;21.80;99.90
20158;DHT22;10239;56.820;24.416;2022-07-06T10:53:11;21.80;99.90
20158;DHT22;10239;56.820;24.416;2022-07-06T10:55:44;21.90;99.90
20158;DHT22;10239;56.820;24.416;2022-07-06T10:58:14;22.00;99.90
20158;DHT22;10239;56.820;24.416;2022-07-06T11:00:56;22.30;99.90
20158;DHT22;10239;56.820;24.416;2022-07-06T11:06:21;22.70;99.90
20158;DHT22;10239;56.820;24.416;2022-07-06T11:14:08;22.00;99.90
20158;DHT22;10239;56.820;24.416;2022-07-06T11:19:21;21.90;99.90
20158;DHT22;10239;56.820;24.416;2022-07-06T11:24:21;21.60;99.90
20158;DHT22;10239;56.820;24.416;2022-07-06T11:26:51;21.80;99.90
20158;DHT22;10239;56.820;24.416;2022-07-06T11:29:24;22.10;99.90
20158;DHT22;10239;56.820;24.416;2022-07-06T11:31:55;22.00;99.90
20158;DHT22;10239;56.820;24.416;2022-07-06T11:34:25;22.10;99.90
20158;DHT22;10239;56.820;24.416;2022-07-06T11:36:57;22.20;99.90
20158;DHT22;10239;56.820;24.416;2022-07-06T11:39:34;22.50;99.90
20158;DHT22;10239;56.820;24.416;2022-07-06T11:42:03;21.80;99.90
20158;DHT22;10239;56.820;24.416;2022-07-06T11:44:31;21.70;99.90
20158;DHT22;10239;56.820;24.416;2022-07-06T11:47:00;21.80;99.90
20158;DHT22;10239;56.820;24.416;2022-07-06T11:49:31;21.60;99.90
20158;DHT22;10239;56.820;24.416;2022-07-06T11:52:00;21.50;99.90
20158;DHT22;10239;56.820;24.416;2022-07-06T11:54:27;21.60;99.90
20158;DHT22;10239;56.820;24.416;2022-07-06T11:56:59;21.50;99.90
20158;DHT22;10239;56.820;24.416;2022-07-06T11:59:32;21.80;99.90
20158;DHT22;10239;56.820;24.416;2022-07-06T12:02:07;21.50;99.90
20158;DHT22;10239;56.820;24.416;2022-07-06T12:04:38;21.40;99.90
20158;DHT22;10239;56.820;24.416;2022-07-06T12:07:08;21.50;99.90
20158;DHT22;10239;56.820;24.416;2022-07-06T12:09:38;21.30;99.90
20158;DHT22;10239;56.820;24.416;2022-07-06T12:12:07;21.50;99.90
20158;DHT22;10239;56.820;24.416;2022-07-06T12:14:37;21.30;99.90
20158;DHT22;10239;56.820;24.416;2022-07-06T12:17:09;21.30;99.90
20158;DHT22;10239;56.820;24.416;2022-07-06T12:19:39;21.50;99.90
20158;DHT22;10239;56.820;24.416;2022-07-06T12:22:08;21.70;99.90
20158;DHT22;10239;56.820;24.416;2022-07-06T12:24:37;22.00;99.90
20158;DHT22;10239;56.820;24.416;2022-07-06T12:27:13;22.10;99.90
20158;DHT22;10239;56.820;24.416;2022-07-06T12:29:42;22.40;99.90
20158;DHT22;10239;56.820;24.416;2022-07-06T12:32:21;22.20;99.90
20158;DHT22;10239;56.820;24.416;2022-07-06T12:35:20;22.50;99.90
20158;DHT22;10239;56.820;24.416;2022-07-06T12:37:56;22.20;99.90
20158;DHT22;10239;56.820;24.416;2022-07-06T12:40:29;22.10;99.90
20158;DHT22;10239;56.820;24.416;2022-07-06T12:42:57;22.20;99.90
20158;DHT22;10239;56.820;24.416;2022-07-06T12:45:28;22.40;99.90
20158;DHT22;10239;56.820;24.416;2022-07-06T12:48:04;22.20;99.90
20158;DHT22;10239;56.820;24.416;2022-07-06T12:50:35;22.00;99.90
20158;DHT22;10239;56.820;24.416;2022-07-06T12:53:05;21.80;99.90
20158;DHT22;10239;56.820;24.416;2022-07-06T12:55:32;21.70;99.90
20158;DHT22;10239;56.820;24.416;2022-07-06T12:58:00;21.80;99.90
20158;DHT22;10239;56.820;24.416;2022-07-06T13:00:27;21.30;99.90
20158;DHT22;10239;56.820;24.416;2022-07-06T13:02:55;21.60;99.90
20158;DHT22;10239;56.820;24.416;2022-07-06T13:05:39;21.70;99.90
20158;DHT22;10239;56.820;24.416;2022-07-06T13:08:06;22.00;99.90
20158;DHT22;10239;56.820;24.416;2022-07-06T13:10:36;22.20;99.90
20158;DHT22;10239;56.820;24.416;2022-07-06T13:13:04;21.80;99.90
20158;DHT22;10239;56.820;24.416;2022-07-06T13:15:35;21.40;99.90
20158;DHT22;10239;56.820;24.416;2022-07-06T13:18:02;21.80;99.90
20158;DHT22;10239;56.820;24.416;2022-07-06T13:20:35;21.50;99.90
20158;DHT22;10239;56.820;24.416;2022-07-06T13:23:03;21.50;99.90
20158;DHT22;10239;56.820;24.416;2022-07-06T13:25:30;21.30;99.90
20158;DHT22;10239;56.820;24.416;2022-07-06T13:27:58;21.20;99.90
20158;DHT22;10239;56.820;24.416;2022-07-06T13:30:25;21.10;99.90
20158;DHT22;10239;56.820;24.416;2022-07-06T13:32:53;21.30;99.90
20158;DHT22;10239;56.820;24.416;2022-07-06T13:35:20;21.30;99.90
20158;DHT22;10239;56.820;24.416;2022-07-06T13:37:48;21.40;99.90
20158;DHT22;10239;56.820;24.416;2022-07-06T13:40:17;21.60;99.90
20158;DHT22;10239;56.820;24.416;2022-07-06T13:42:45;22.00;99.90
20158;DHT22;10239;56.820;24.416;2022-07-06T13:45:13;21.70;99.90
20158;DHT22;10239;56.820;24.416;2022-07-06T13:47:40;22.00;99.90
20158;DHT22;10239;56.820;24.416;2022-07-06T13:50:08;22.40;99.90
20158;DHT22;10239;56.820;24.416;2022-07-06T13:52:35;22.50;99.90
20158;DHT22;10239;56.820;24.416;2022-07-06T13:55:04;22.80;99.90
20158;DHT22;10239;56.820;24.416;2022-07-06T13:57:31;22.50;99.90
20158;DHT22;10239;56.820;24.416;2022-07-06T13:59:59;22.20;99.90
20158;DHT22;10239;56.820;24.416;2022-07-06T14:02:27;22.30;99.90
20158;DHT22;10239;56.820;24.416;2022-07-06T14:04:54;21.90;99.90
20158;DHT22;10239;56.820;24.416;2022-07-06T14:07:22;21.40;99.90
20158;DHT22;10239;56.820;24.416;2022-07-06T14:09:50;21.20;99.90
20158;DHT22;10239;56.820;24.416;2022-07-06T14:12:19;20.80;99.90
20158;DHT22;10239;56.820;24.416;2022-07-06T14:14:49;21.10;99.90
20158;DHT22;10239;56.820;24.416;2022-07-06T14:17:17;21.30;99.90
20158;DHT22;10239;56.820;24.416;2022-07-06T14:19:45;20.90;99.90
20158;DHT22;10239;56.820;24.416;2022-07-06T14:22:12;20.80;99.90
20158;DHT22;10239;56.820;24.416;2022-07-06T14:24:40;20.50;99.90
20158;DHT22;10239;56.820;24.416;2022-07-06T14:27:08;20.00;99.90
20158;DHT22;10239;56.820;24.416;2022-07-06T14:29:35;19.80;99.90
20158;DHT22;10239;56.820;24.416;2022-07-06T14:32:03;19.80;99.90
20158;DHT22;10239;56.820;24.416;2022-07-06T14:34:30;19.70;99.90
20158;DHT22;10239;56.820;24.416;2022-07-06T14:36:58;20.00;99.90
20158;DHT22;10239;56.820;24.416;2022-07-06T14:39:26;20.20;99.90
20158;DHT22;10239;56.820;24.416;2022-07-06T14:41:53;20.10;99.90
20158;DHT22;10239;56.820;24.416;2022-07-06T14:44:21;20.30;99.90
20158;DHT22;10239;56.820;24.416;2022-07-06T14:46:48;20.30;99.90
20158;DHT22;10239;56.820;24.416;2022-07-06T14:49:16;20.20;99.90
20158;DHT22;10239;56.820;24.416;2022-07-06T14:51:48;20.40;99.90
20158;DHT22;10239;56.820;24.416;2022-07-06T14:54:16;20.50;99.90
20158;DHT22;10239;56.820;24.416;2022-07-06T14:56:44;20.70;99.90
20158;DHT22;10239;56.820;24.416;2022-07-06T14:59:12;21.00;99.90
20158;DHT22;10239;56.820;24.416;2022-07-06T15:01:50;21.30;99.90
20158;DHT22;10239;56.820;24.416;2022-07-06T15:04:18;21.40;99.90
20158;DHT22;10239;56.820;24.416;2022-07-06T15:06:46;21.40;99.90
20158;DHT22;10239;56.820;24.416;2022-07-06T15:09:23;21.50;99.90
20158;DHT22;10239;56.820;24.416;2022-07-06T15:11:51;21.40;99.90
20158;DHT22;10239;56.820;24.416;2022-07-06T15:14:19;21.50;99.90
20158;DHT22;10239;56.820;24.416;2022-07-06T15:16:47;21.30;99.90
20158;DHT22;10239;56.820;24.416;2022-07-06T15:19:16;21.00;99.90
20158;DHT22;10239;56.820;24.416;2022-07-06T15:21:43;20.60;99.90
20158;DHT22;10239;56.820;24.416;2022-07-06T15:24:11;20.20;99.90
20158;DHT22;10239;56.820;24.416;2022-07-06T15:26:38;20.10;99.90
20158;DHT22;10239;56.820;24.416;2022-07-06T15:29:06;20.10;99.90
20158;DHT22;10239;56.820;24.416;2022-07-06T15:31:33;20.10;99.90
20158;DHT22;10239;56.820;24.416;2022-07-06T15:34:01;20.00;99.90
20158;DHT22;10239;56.820;24.416;2022-07-06T15:36:28;19.90;99.90
20158;DHT22;10239;56.820;24.416;2022-07-06T15:38:56;20.20;99.90
20158;DHT22;10239;56.820;24.416;2022-07-06T15:41:24;20.30;99.90
20158;DHT22;10239;56.820;24.416;2022-07-06T15:43:52;19.90;99.90